Ana Sayfa
METAR-TAF:

METAR-TAF

Havaalanları :

Plainview, Teksas, Amerika Birleşik Devletleri

Enlem: 34-10-05N, Boylam: 101-43-02W, yükseklik: 1028 m

Güncel hava durumu gözlemi

Rapor saat 17:55 UTC de 19 dakika önce yapıldı.
Rüzgar güney/güneybatıdan 15 kt ve 19 kt'a kadar ani rüzgarlar
Sıcaklık 13°C
Nem 35%
Basınç 1027 hPa
Görüş mesafesi: 16.1 km
Açık gökyüzü

METAR: KPVW 151755Z AUTO 21015G19KT 10SM CLR 13/M02 A3032 RMK AO2 T01261022 10128 21050

Saat: 12:14 (18:14 UTC)

Tahmin

Rapor saat 17:22 UTC de 52 dakika önce yapıldı.
Ayın 15'si saat 18 UTC'den ayın 16'si saat 18 UTC'ye kadar geçerli Tahmin
Rüzgar güney/güneybatıdan 12 kt ve 16 kt'a kadar ani rüzgarlar
Görüş mesafesi: 10 km
Açık gökyüzü
Ayın 16'si saat 0000 UTC'den
Rüzgar güney/güneybatıdan 8 kt
Görüş mesafesi: 10 km
Açık gökyüzü

TAF: KPVW 151722Z 1518/1618 21012G16KT P6SM SKC FM160000 21008KT P6SM SKC

4.000'den fazla havaalanı için hava durumu gözlemleri ve tahminleri (METAR ve TAF raporları).

Kullanılabilir istasyonlar harita üzerinde sarı ve kırmızı noktalarla gösterilir.

İstasyonun adını görmek için fareyi noktanın üzerinde gezdirin.

Sonrasında hava gözlem ve tahminlerini görmek için tıklayın.

Haritayı değiştirmek için: yaklaştırmak için siyah artı işaretli yeşil düğmeye ve uzaklaştırmak için de eksi işaretli düğmeye hızla tıklayın; bitişik haritalar için yeşil okları kullanın.


METAR-TAF: